sensor_id;sensor_type;location;lat;lon;timestamp;pressure;altitude;pressure_sealevel;temperature;humidity
49827;BME280;35715;51.570;6.036;2023-05-22T00:02:19;101299.41;;;20.17;87.60
49827;BME280;35715;51.570;6.036;2023-05-22T00:04:46;101305.53;;;20.18;86.98
49827;BME280;35715;51.570;6.036;2023-05-22T00:07:12;101312.47;;;20.16;87.07
49827;BME280;35715;51.570;6.036;2023-05-22T00:09:37;101310.56;;;20.12;85.96
49827;BME280;35715;51.570;6.036;2023-05-22T00:12:03;101311.38;;;20.09;87.10
49827;BME280;35715;51.570;6.036;2023-05-22T00:14:28;101303.56;;;20.11;87.75
49827;BME280;35715;51.570;6.036;2023-05-22T00:16:54;101304.44;;;20.11;87.81
49827;BME280;35715;51.570;6.036;2023-05-22T00:19:20;101308.91;;;20.14;87.86
49827;BME280;35715;51.570;6.036;2023-05-22T00:21:47;101304.59;;;20.16;87.49
49827;BME280;35715;51.570;6.036;2023-05-22T00:24:12;101302.91;;;20.18;86.91
49827;BME280;35715;51.570;6.036;2023-05-22T00:26:37;101298.59;;;20.18;87.01
49827;BME280;35715;51.570;6.036;2023-05-22T00:29:03;101298.53;;;20.17;88.05
49827;BME280;35715;51.570;6.036;2023-05-22T00:31:30;101294.06;;;20.14;88.35
49827;BME280;35715;51.570;6.036;2023-05-22T00:33:55;101288.78;;;20.13;87.53
49827;BME280;35715;51.570;6.036;2023-05-22T00:36:21;101287.91;;;20.12;87.49
49827;BME280;35715;51.570;6.036;2023-05-22T00:38:46;101286.06;;;20.10;87.50
49827;BME280;35715;51.570;6.036;2023-05-22T00:41:12;101277.19;;;20.06;88.01
49827;BME280;35715;51.570;6.036;2023-05-22T00:43:39;101278.03;;;20.05;86.85
49827;BME280;35715;51.570;6.036;2023-05-22T00:46:04;101284.88;;;20.01;87.37
49827;BME280;35715;51.570;6.036;2023-05-22T00:48:31;101276.06;;;19.99;88.22
49827;BME280;35715;51.570;6.036;2023-05-22T00:50:57;101282.03;;;19.95;87.39
49827;BME280;35715;51.570;6.036;2023-05-22T00:53:27;101274.00;;;19.91;87.22
49827;BME280;35715;51.570;6.036;2023-05-22T00:55:55;101280.88;;;19.87;87.51
49827;BME280;35715;51.570;6.036;2023-05-22T00:58:24;101276.41;;;19.84;87.39
49827;BME280;35715;51.570;6.036;2023-05-22T01:00:50;101276.22;;;19.80;86.92
49827;BME280;35715;51.570;6.036;2023-05-22T01:03:16;101281.47;;;19.80;86.71
49827;BME280;35715;51.570;6.036;2023-05-22T01:05:43;101286.44;;;19.74;86.76
49827;BME280;35715;51.570;6.036;2023-05-22T01:08:09;101278.41;;;19.69;87.11
49827;BME280;35715;51.570;6.036;2023-05-22T01:10:36;101283.53;;;19.66;87.32
49827;BME280;35715;51.570;6.036;2023-05-22T01:13:17;101286.06;;;19.63;87.07
49827;BME280;35715;51.570;6.036;2023-05-22T01:15:53;101284.13;;;19.59;87.52
49827;BME280;35715;51.570;6.036;2023-05-22T01:18:43;101289.25;;;19.56;87.43
49827;BME280;35715;51.570;6.036;2023-05-22T01:21:17;101288.25;;;19.52;88.11
49827;BME280;35715;51.570;6.036;2023-05-22T01:32:27;101274.84;;;19.43;88.88
49827;BME280;35715;51.570;6.036;2023-05-22T01:34:55;101279.09;;;19.41;88.72
49827;BME280;35715;51.570;6.036;2023-05-22T01:37:23;101273.69;;;19.36;89.14
49827;BME280;35715;51.570;6.036;2023-05-22T01:39:53;101277.09;;;19.33;88.84
49827;BME280;35715;51.570;6.036;2023-05-22T01:42:19;101280.47;;;19.31;89.24
49827;BME280;35715;51.570;6.036;2023-05-22T01:44:44;101279.47;;;19.27;89.18
49827;BME280;35715;51.570;6.036;2023-05-22T01:47:10;101276.59;;;19.21;89.51
49827;BME280;35715;51.570;6.036;2023-05-22T01:49:35;101280.00;;;19.19;89.89
49827;BME280;35715;51.570;6.036;2023-05-22T01:52:22;101277.97;;;19.11;89.93
49827;BME280;35715;51.570;6.036;2023-05-22T01:55:54;101272.63;;;19.08;90.16
49827;BME280;35715;51.570;6.036;2023-05-22T01:58:15;101273.31;;;19.04;90.03
49827;BME280;35715;51.570;6.036;2023-05-22T02:00:37;101277.53;;;19.01;90.34
49827;BME280;35715;51.570;6.036;2023-05-22T02:03:07;101273.97;;;18.99;90.78
49827;BME280;35715;51.570;6.036;2023-05-22T02:05:37;101274.88;;;18.99;91.11
49827;BME280;35715;51.570;6.036;2023-05-22T02:08:04;101273.97;;;18.99;91.25
49827;BME280;35715;51.570;6.036;2023-05-22T02:10:30;101270.34;;;18.95;90.79
49827;BME280;35715;51.570;6.036;2023-05-22T02:12:57;101267.66;;;18.93;91.06
49827;BME280;35715;51.570;6.036;2023-05-22T02:15:22;101267.59;;;18.92;91.64
49827;BME280;35715;51.570;6.036;2023-05-22T02:17:48;101268.34;;;18.89;91.68
49827;BME280;35715;51.570;6.036;2023-05-22T02:20:14;101265.53;;;18.85;91.08
49827;BME280;35715;51.570;6.036;2023-05-22T02:22:44;101261.16;;;18.84;91.28
49827;BME280;35715;51.570;6.036;2023-05-22T02:25:10;101257.88;;;18.68;91.53
49827;BME280;35715;51.570;6.036;2023-05-22T02:27:42;101253.63;;;18.70;90.81
49827;BME280;35715;51.570;6.036;2023-05-22T02:30:09;101256.16;;;18.69;91.17
49827;BME280;35715;51.570;6.036;2023-05-22T02:32:35;101254.38;;;18.68;91.17
49827;BME280;35715;51.570;6.036;2023-05-22T02:35:00;101249.97;;;18.67;91.47
49827;BME280;35715;51.570;6.036;2023-05-22T02:37:26;101250.81;;;18.66;91.31
49827;BME280;35715;51.570;6.036;2023-05-22T02:39:51;101247.16;;;18.62;91.59
49827;BME280;35715;51.570;6.036;2023-05-22T02:42:16;101254.94;;;18.60;91.75
49827;BME280;35715;51.570;6.036;2023-05-22T02:44:42;101245.16;;;18.55;91.61
49827;BME280;35715;51.570;6.036;2023-05-22T02:47:07;101250.19;;;18.50;91.69
49827;BME280;35715;51.570;6.036;2023-05-22T02:49:32;101252.69;;;18.47;91.80
49827;BME280;35715;51.570;6.036;2023-05-22T02:51:58;101248.22;;;18.44;91.86
49827;BME280;35715;51.570;6.036;2023-05-22T02:54:23;101247.16;;;18.41;92.13
49827;BME280;35715;51.570;6.036;2023-05-22T02:56:49;101251.44;;;18.39;92.02
49827;BME280;35715;51.570;6.036;2023-05-22T02:59:14;101247.75;;;18.34;92.01
49827;BME280;35715;51.570;6.036;2023-05-22T03:01:40;101252.84;;;18.31;92.43
49827;BME280;35715;51.570;6.036;2023-05-22T03:04:05;101246.66;;;18.29;92.57
49827;BME280;35715;51.570;6.036;2023-05-22T03:06:31;101245.84;;;18.30;93.14
49827;BME280;35715;51.570;6.036;2023-05-22T03:08:56;101245.00;;;18.31;92.64
49827;BME280;35715;51.570;6.036;2023-05-22T03:11:22;101247.50;;;18.27;92.65
49827;BME280;35715;51.570;6.036;2023-05-22T03:13:47;101243.84;;;18.24;92.92
49827;BME280;35715;51.570;6.036;2023-05-22T03:16:12;101246.38;;;18.22;93.01
49827;BME280;35715;51.570;6.036;2023-05-22T03:18:38;101248.06;;;18.20;93.39
49827;BME280;35715;51.570;6.036;2023-05-22T03:21:03;101249.78;;;18.20;93.41
49827;BME280;35715;51.570;6.036;2023-05-22T03:23:29;101257.69;;;18.21;93.63
49827;BME280;35715;51.570;6.036;2023-05-22T03:25:54;101248.13;;;18.22;93.30
49827;BME280;35715;51.570;6.036;2023-05-22T03:28:20;101254.16;;;18.21;92.85
49827;BME280;35715;51.570;6.036;2023-05-22T03:30:46;101252.34;;;18.18;93.29
49827;BME280;35715;51.570;6.036;2023-05-22T03:33:11;101259.19;;;18.16;93.42
49827;BME280;35715;51.570;6.036;2023-05-22T03:35:37;101245.19;;;18.14;93.41
49827;BME280;35715;51.570;6.036;2023-05-22T03:38:02;101248.59;;;18.13;93.94
49827;BME280;35715;51.570;6.036;2023-05-22T03:40:27;101252.94;;;18.13;93.58
49827;BME280;35715;51.570;6.036;2023-05-22T03:42:53;101250.34;;;18.13;93.54
49827;BME280;35715;51.570;6.036;2023-05-22T03:45:18;101248.53;;;18.12;94.07
49827;BME280;35715;51.570;6.036;2023-05-22T03:47:43;101250.34;;;18.13;93.53
49827;BME280;35715;51.570;6.036;2023-05-22T03:50:09;101242.50;;;18.13;93.57
49827;BME280;35715;51.570;6.036;2023-05-22T03:52:35;101245.88;;;18.10;93.25
49827;BME280;35715;51.570;6.036;2023-05-22T03:55:00;101253.69;;;18.10;93.30
49827;BME280;35715;51.570;6.036;2023-05-22T03:57:26;101248.41;;;18.08;93.43
49827;BME280;35715;51.570;6.036;2023-05-22T03:59:51;101253.69;;;18.10;94.17
49827;BME280;35715;51.570;6.036;2023-05-22T04:02:17;101251.09;;;18.10;94.20
49827;BME280;35715;51.570;6.036;2023-05-22T04:04:42;101244.97;;;18.09;93.42
49827;BME280;35715;51.570;6.036;2023-05-22T04:07:10;101251.84;;;18.07;93.15
49827;BME280;35715;51.570;6.036;2023-05-22T04:09:37;101253.63;;;18.08;93.28
49827;BME280;35715;51.570;6.036;2023-05-22T04:12:02;101258.78;;;18.07;93.32
49827;BME280;35715;51.570;6.036;2023-05-22T04:14:28;101259.59;;;18.06;93.03
49827;BME280;35715;51.570;6.036;2023-05-22T04:16:53;101255.16;;;18.03;92.80
49827;BME280;35715;51.570;6.036;2023-05-22T04:19:18;101249.94;;;18.03;93.38
49827;BME280;35715;51.570;6.036;2023-05-22T04:21:44;101249.94;;;18.03;93.25
49827;BME280;35715;51.570;6.036;2023-05-22T04:24:10;101245.59;;;18.04;93.42
49827;BME280;35715;51.570;6.036;2023-05-22T04:26:36;101246.47;;;18.04;93.13
49827;BME280;35715;51.570;6.036;2023-05-22T04:29:02;101251.84;;;18.07;93.53
49827;BME280;35715;51.570;6.036;2023-05-22T04:31:28;101251.09;;;18.10;93.32
49827;BME280;35715;51.570;6.036;2023-05-22T04:33:54;101250.22;;;18.09;93.22
49827;BME280;35715;51.570;6.036;2023-05-22T04:36:20;101259.81;;;18.11;93.18
49827;BME280;35715;51.570;6.036;2023-05-22T04:38:51;101257.25;;;18.12;93.43
49827;BME280;35715;51.570;6.036;2023-05-22T04:41:16;101250.41;;;18.14;92.74
49827;BME280;35715;51.570;6.036;2023-05-22T04:43:43;101245.19;;;18.14;93.44
49827;BME280;35715;51.570;6.036;2023-05-22T04:46:08;101244.34;;;18.15;93.12
49827;BME280;35715;51.570;6.036;2023-05-22T04:48:33;101246.88;;;18.14;92.84
49827;BME280;35715;51.570;6.036;2023-05-22T04:50:59;101253.09;;;18.16;92.95
49827;BME280;35715;51.570;6.036;2023-05-22T04:53:26;101251.22;;;18.13;93.01
49827;BME280;35715;51.570;6.036;2023-05-22T04:55:53;101246.75;;;18.11;93.05
49827;BME280;35715;51.570;6.036;2023-05-22T04:58:18;101251.09;;;18.10;93.34
49827;BME280;35715;51.570;6.036;2023-05-22T05:00:44;101259.88;;;18.12;93.63
49827;BME280;35715;51.570;6.036;2023-05-22T05:03:09;101263.59;;;18.17;93.35
49827;BME280;35715;51.570;6.036;2023-05-22T05:05:35;101264.53;;;18.19;93.94
49827;BME280;35715;51.570;6.036;2023-05-22T05:08:01;101269.97;;;18.24;93.56
49827;BME280;35715;51.570;6.036;2023-05-22T05:10:26;101277.94;;;18.27;93.72
49827;BME280;35715;51.570;6.036;2023-05-22T05:12:51;101279.91;;;18.33;93.85
49827;BME280;35715;51.570;6.036;2023-05-22T05:15:17;101273.03;;;18.35;93.30
49827;BME280;35715;51.570;6.036;2023-05-22T05:17:42;101272.22;;;18.36;93.25
49827;BME280;35715;51.570;6.036;2023-05-22T05:20:08;101275.72;;;18.36;93.75
49827;BME280;35715;51.570;6.036;2023-05-22T05:22:34;101267.94;;;18.38;93.26
49827;BME280;35715;51.570;6.036;2023-05-22T05:25:01;101273.94;;;18.35;93.12
49827;BME280;35715;51.570;6.036;2023-05-22T05:27:28;101274.69;;;18.33;92.94
49827;BME280;35715;51.570;6.036;2023-05-22T05:29:53;101279.78;;;18.30;93.21
49827;BME280;35715;51.570;6.036;2023-05-22T05:32:19;101277.13;;;18.28;92.99
49827;BME280;35715;51.570;6.036;2023-05-22T05:34:45;101279.66;;;18.26;92.94
49827;BME280;35715;51.570;6.036;2023-05-22T05:37:10;101272.63;;;18.25;93.42
49827;BME280;35715;51.570;6.036;2023-05-22T05:39:35;101281.31;;;18.24;92.99
49827;BME280;35715;51.570;6.036;2023-05-22T05:42:01;101280.28;;;18.21;92.91
49827;BME280;35715;51.570;6.036;2023-05-22T05:44:26;101282.69;;;18.16;92.28
49827;BME280;35715;51.570;6.036;2023-05-22T05:46:52;101279.88;;;18.12;92.20
49827;BME280;35715;51.570;6.036;2023-05-22T05:49:18;101277.13;;;18.08;92.29
49827;BME280;35715;51.570;6.036;2023-05-22T05:51:43;101287.38;;;18.04;92.32
49827;BME280;35715;51.570;6.036;2023-05-22T05:54:09;101286.50;;;18.03;92.17
49827;BME280;35715;51.570;6.036;2023-05-22T05:56:35;101290.13;;;18.07;93.56
49827;BME280;35715;51.570;6.036;2023-05-22T05:59:00;101299.97;;;18.13;93.86
49827;BME280;35715;51.570;6.036;2023-05-22T06:01:25;101290.19;;;18.08;93.22
49827;BME280;35715;51.570;6.036;2023-05-22T06:03:51;101302.31;;;18.06;92.53
49827;BME280;35715;51.570;6.036;2023-05-22T06:06:16;101296.94;;;18.03;92.59
49827;BME280;35715;51.570;6.036;2023-05-22T06:08:43;101303.19;;;18.07;92.67
49827;BME280;35715;51.570;6.036;2023-05-22T06:11:08;101303.88;;;18.03;92.48
49827;BME280;35715;51.570;6.036;2023-05-22T06:13:34;101305.59;;;18.02;92.34
49827;BME280;35715;51.570;6.036;2023-05-22T06:15:59;101308.94;;;18.00;91.86
49827;BME280;35715;51.570;6.036;2023-05-22T06:18:25;101311.56;;;18.00;91.88
49827;BME280;35715;51.570;6.036;2023-05-22T06:20:51;101316.56;;;17.95;91.61
49827;BME280;35715;51.570;6.036;2023-05-22T06:23:17;101312.03;;;17.91;91.89
49827;BME280;35715;51.570;6.036;2023-05-22T06:25:42;101311.84;;;17.88;91.92
49827;BME280;35715;51.570;6.036;2023-05-22T06:28:08;101309.09;;;17.85;91.83
49827;BME280;35715;51.570;6.036;2023-05-22T06:30:34;101315.31;;;17.87;91.94
49827;BME280;35715;51.570;6.036;2023-05-22T06:33:00;101315.69;;;17.95;91.91
49827;BME280;35715;51.570;6.036;2023-05-22T06:35:25;101331.56;;;17.99;92.86
49827;BME280;35715;51.570;6.036;2023-05-22T06:37:51;101330.81;;;18.02;92.24
49827;BME280;35715;51.570;6.036;2023-05-22T06:40:17;101328.34;;;18.05;92.33
49827;BME280;35715;51.570;6.036;2023-05-22T06:42:43;101318.97;;;18.10;92.41
49827;BME280;35715;51.570;6.036;2023-05-22T06:45:09;101325.03;;;18.09;91.58
49827;BME280;35715;51.570;6.036;2023-05-22T06:47:34;101333.00;;;18.12;91.73
49827;BME280;35715;51.570;6.036;2023-05-22T06:49:59;101329.56;;;18.13;92.04
49827;BME280;35715;51.570;6.036;2023-05-22T06:52:25;101325.38;;;18.17;91.44
49827;BME280;35715;51.570;6.036;2023-05-22T06:54:50;101327.91;;;18.15;91.09
49827;BME280;35715;51.570;6.036;2023-05-22T06:57:16;101342.16;;;18.22;91.12
49827;BME280;35715;51.570;6.036;2023-05-22T06:59:41;101342.16;;;18.22;91.66
49827;BME280;35715;51.570;6.036;2023-05-22T07:02:07;101340.41;;;18.22;90.66
49827;BME280;35715;51.570;6.036;2023-05-22T07:04:32;101343.66;;;18.17;90.51
49827;BME280;35715;51.570;6.036;2023-05-22T07:06:58;101348.97;;;18.18;90.60
49827;BME280;35715;51.570;6.036;2023-05-22T07:09:23;101356.88;;;18.20;90.96
49827;BME280;35715;51.570;6.036;2023-05-22T07:11:48;101350.19;;;18.26;90.97
49827;BME280;35715;51.570;6.036;2023-05-22T07:14:14;101351.28;;;18.32;90.67
49827;BME280;35715;51.570;6.036;2023-05-22T07:16:40;101359.09;;;18.32;90.45
49827;BME280;35715;51.570;6.036;2023-05-22T07:19:06;101364.41;;;18.33;90.46
49827;BME280;35715;51.570;6.036;2023-05-22T07:21:33;101364.41;;;18.33;90.73
49827;BME280;35715;51.570;6.036;2023-05-22T07:24:00;101361.84;;;18.35;90.34
49827;BME280;35715;51.570;6.036;2023-05-22T07:26:27;101368.06;;;18.37;90.45
49827;BME280;35715;51.570;6.036;2023-05-22T07:28:54;101365.72;;;18.43;90.41
49827;BME280;35715;51.570;6.036;2023-05-22T07:31:19;101372.88;;;18.47;90.02
49827;BME280;35715;51.570;6.036;2023-05-22T07:33:45;101371.22;;;18.49;90.11
49827;BME280;35715;51.570;6.036;2023-05-22T07:36:11;101375.69;;;18.52;90.13
49827;BME280;35715;51.570;6.036;2023-05-22T07:38:36;101371.41;;;18.54;90.77
49827;BME280;35715;51.570;6.036;2023-05-22T07:41:02;101377.91;;;18.63;90.93
49827;BME280;35715;51.570;6.036;2023-05-22T07:43:29;101376.22;;;18.64;90.49
49827;BME280;35715;51.570;6.036;2023-05-22T07:45:54;101384.13;;;18.66;90.61
49827;BME280;35715;51.570;6.036;2023-05-22T07:48:20;101388.44;;;18.65;90.05
49827;BME280;35715;51.570;6.036;2023-05-22T07:50:46;101382.47;;;18.68;90.67
49827;BME280;35715;51.570;6.036;2023-05-22T07:53:12;101384.44;;;18.73;91.15
49827;BME280;35715;51.570;6.036;2023-05-22T07:55:37;101383.84;;;18.79;90.45
49827;BME280;35715;51.570;6.036;2023-05-22T07:58:03;101381.22;;;18.79;89.66
49827;BME280;35715;51.570;6.036;2023-05-22T08:00:29;101384.84;;;18.83;89.77
49827;BME280;35715;51.570;6.036;2023-05-22T08:02:55;101382.09;;;18.79;89.60
49827;BME280;35715;51.570;6.036;2023-05-22T08:05:20;101381.28;;;18.80;89.34
49827;BME280;35715;51.570;6.036;2023-05-22T08:07:46;101375.50;;;18.88;89.18
49827;BME280;35715;51.570;6.036;2023-05-22T08:10:16;101382.78;;;18.95;89.17
49827;BME280;35715;51.570;6.036;2023-05-22T08:12:42;101377.03;;;19.04;89.53
49827;BME280;35715;51.570;6.036;2023-05-22T08:15:08;101379.97;;;19.11;89.03
49827;BME280;35715;51.570;6.036;2023-05-22T08:17:33;101383.66;;;19.17;88.59
49827;BME280;35715;51.570;6.036;2023-05-22T08:19:59;101376.00;;;19.21;88.57
49827;BME280;35715;51.570;6.036;2023-05-22T08:22:24;101375.31;;;19.25;87.50
49827;BME280;35715;51.570;6.036;2023-05-22T08:24:50;101381.81;;;19.35;88.11
49827;BME280;35715;51.570;6.036;2023-05-22T08:27:15;101369.88;;;19.42;87.78
49827;BME280;35715;51.570;6.036;2023-05-22T08:29:40;101365.06;;;19.53;87.18
49827;BME280;35715;51.570;6.036;2023-05-22T08:32:07;101370.53;;;19.59;86.84
49827;BME280;35715;51.570;6.036;2023-05-22T08:34:32;101376.97;;;19.67;86.43
49827;BME280;35715;51.570;6.036;2023-05-22T08:36:58;101365.25;;;19.80;86.18
49827;BME280;35715;51.570;6.036;2023-05-22T08:39:24;101374.50;;;19.93;86.29
49827;BME280;35715;51.570;6.036;2023-05-22T08:41:49;101378.56;;;20.09;86.28
49827;BME280;35715;51.570;6.036;2023-05-22T08:44:15;101366.47;;;20.61;85.31
49827;BME280;35715;51.570;6.036;2023-05-22T08:46:41;101374.69;;;20.96;83.69
49827;BME280;35715;51.570;6.036;2023-05-22T08:49:08;101368.88;;;21.06;82.61
49827;BME280;35715;51.570;6.036;2023-05-22T08:51:37;101372.34;;;21.31;82.11
49827;BME280;35715;51.570;6.036;2023-05-22T08:54:07;101365.50;;;21.36;80.32
49827;BME280;35715;51.570;6.036;2023-05-22T08:56:36;101375.81;;;21.57;79.55
49827;BME280;35715;51.570;6.036;2023-05-22T08:59:03;101373.91;;;22.73;78.83
49827;BME280;35715;51.570;6.036;2023-05-22T09:01:29;101362.44;;;23.06;74.75
49827;BME280;35715;51.570;6.036;2023-05-22T09:04:00;101368.00;;;23.16;74.54
49827;BME280;35715;51.570;6.036;2023-05-22T09:06:29;101364.56;;;23.57;73.76
49827;BME280;35715;51.570;6.036;2023-05-22T09:08:56;101364.16;;;24.64;69.84
49827;BME280;35715;51.570;6.036;2023-05-22T09:11:22;101363.66;;;25.40;66.91
49827;BME280;35715;51.570;6.036;2023-05-22T09:13:47;101364.69;;;26.14;64.60
49827;BME280;35715;51.570;6.036;2023-05-22T09:16:14;101367.88;;;26.65;61.62
49827;BME280;35715;51.570;6.036;2023-05-22T09:18:40;101371.03;;;27.25;59.36
49827;BME280;35715;51.570;6.036;2023-05-22T09:21:09;101366.81;;;27.46;57.87
49827;BME280;35715;51.570;6.036;2023-05-22T09:23:34;101362.56;;;27.77;57.03
49827;BME280;35715;51.570;6.036;2023-05-22T09:26:01;101359.22;;;28.20;55.92
49827;BME280;35715;51.570;6.036;2023-05-22T09:28:31;101367.25;;;28.44;54.59
49827;BME280;35715;51.570;6.036;2023-05-22T09:30:59;101360.25;;;28.71;54.55
49827;BME280;35715;51.570;6.036;2023-05-22T09:33:24;101362.03;;;29.06;54.13
49827;BME280;35715;51.570;6.036;2023-05-22T09:35:52;101359.34;;;29.31;51.79
49827;BME280;35715;51.570;6.036;2023-05-22T09:38:18;101350.41;;;29.61;51.65
49827;BME280;35715;51.570;6.036;2023-05-22T09:40:45;101358.28;;;30.00;50.33
49827;BME280;35715;51.570;6.036;2023-05-22T09:43:11;101350.19;;;30.21;48.35
49827;BME280;35715;51.570;6.036;2023-05-22T09:45:41;101345.66;;;30.39;48.09
49827;BME280;35715;51.570;6.036;2023-05-22T09:48:08;101348.25;;;30.51;47.88
49827;BME280;35715;51.570;6.036;2023-05-22T09:50:34;101344.53;;;30.77;47.36
49827;BME280;35715;51.570;6.036;2023-05-22T09:53:02;101343.50;;;30.93;46.40
49827;BME280;35715;51.570;6.036;2023-05-22T09:55:28;101338.94;;;31.08;46.78
49827;BME280;35715;51.570;6.036;2023-05-22T09:57:54;101340.66;;;31.15;45.22
49827;BME280;35715;51.570;6.036;2023-05-22T10:00:21;101336.00;;;31.37;45.85
49827;BME280;35715;51.570;6.036;2023-05-22T10:02:57;101342.88;;;31.54;44.51
49827;BME280;35715;51.570;6.036;2023-05-22T10:05:29;101338.47;;;31.53;44.42
49827;BME280;35715;51.570;6.036;2023-05-22T10:07:56;101338.34;;;31.66;44.15
49827;BME280;35715;51.570;6.036;2023-05-22T10:10:28;101326.78;;;31.66;43.97
49827;BME280;35715;51.570;6.036;2023-05-22T10:13:00;101333.81;;;31.72;43.65
49827;BME280;35715;51.570;6.036;2023-05-22T10:15:26;101334.28;;;32.05;44.17
49827;BME280;35715;51.570;6.036;2023-05-22T10:17:51;101332.25;;;32.25;43.59
49827;BME280;35715;51.570;6.036;2023-05-22T10:20:17;101331.13;;;32.38;44.61
49827;BME280;35715;51.570;6.036;2023-05-22T10:22:45;101334.38;;;32.59;42.31
49827;BME280;35715;51.570;6.036;2023-05-22T10:25:12;101329.28;;;32.44;43.56
49827;BME280;35715;51.570;6.036;2023-05-22T10:27:39;101328.94;;;32.68;41.82
49827;BME280;35715;51.570;6.036;2023-05-22T10:30:07;101323.22;;;32.88;41.50
49827;BME280;35715;51.570;6.036;2023-05-22T10:32:40;101329.13;;;33.07;41.91
49827;BME280;35715;51.570;6.036;2023-05-22T10:37:46;101322.47;;;33.32;40.25
49827;BME280;35715;51.570;6.036;2023-05-22T10:40:17;101324.22;;;33.34;40.31
49827;BME280;35715;51.570;6.036;2023-05-22T10:42:44;101316.25;;;33.31;39.70
49827;BME280;35715;51.570;6.036;2023-05-22T10:45:10;101313.44;;;33.39;39.33
49827;BME280;35715;51.570;6.036;2023-05-22T10:47:36;101329.97;;;33.58;40.15
49827;BME280;35715;51.570;6.036;2023-05-22T10:50:10;101321.69;;;33.73;39.96
49827;BME280;35715;51.570;6.036;2023-05-22T10:52:37;101313.63;;;33.72;39.83
49827;BME280;35715;51.570;6.036;2023-05-22T10:55:07;101317.06;;;33.35;40.06
49827;BME280;35715;51.570;6.036;2023-05-22T10:57:33;101323.09;;;33.45;41.27
49827;BME280;35715;51.570;6.036;2023-05-22T11:00:11;101316.56;;;34.02;39.50
49827;BME280;35715;51.570;6.036;2023-05-22T11:02:39;101319.72;;;34.21;38.80
49827;BME280;35715;51.570;6.036;2023-05-22T11:05:31;101328.31;;;34.35;38.71
49827;BME280;35715;51.570;6.036;2023-05-22T11:08:35;101317.31;;;34.47;37.85
49827;BME280;35715;51.570;6.036;2023-05-22T11:11:11;101313.44;;;34.59;37.30
49827;BME280;35715;51.570;6.036;2023-05-22T11:13:37;101314.66;;;33.66;38.84
49827;BME280;35715;51.570;6.036;2023-05-22T11:16:03;101309.31;;;33.21;38.78
49827;BME280;35715;51.570;6.036;2023-05-22T11:18:29;101310.22;;;32.68;39.81
49827;BME280;35715;51.570;6.036;2023-05-22T11:20:54;101315.19;;;33.38;38.34
49827;BME280;35715;51.570;6.036;2023-05-22T11:23:23;101304.38;;;33.88;38.85
49827;BME280;35715;51.570;6.036;2023-05-22T11:25:49;101304.03;;;34.05;37.30
49827;BME280;35715;51.570;6.036;2023-05-22T11:28:14;101306.19;;;34.28;37.29
49827;BME280;35715;51.570;6.036;2023-05-22T11:30:40;101303.06;;;34.45;38.28
49827;BME280;35715;51.570;6.036;2023-05-22T11:33:05;101304.16;;;33.99;37.15
49827;BME280;35715;51.570;6.036;2023-05-22T11:35:31;101294.09;;;33.23;37.76
49827;BME280;35715;51.570;6.036;2023-05-22T11:37:56;101299.78;;;33.51;38.00
49827;BME280;35715;51.570;6.036;2023-05-22T11:40:25;101303.16;;;34.03;37.47
49827;BME280;35715;51.570;6.036;2023-05-22T11:42:51;101304.91;;;34.04;37.12
49827;BME280;35715;51.570;6.036;2023-05-22T11:45:17;101304.63;;;34.17;36.41
49827;BME280;35715;51.570;6.036;2023-05-22T11:47:43;101305.22;;;34.31;37.47
49827;BME280;35715;51.570;6.036;2023-05-22T11:50:10;101304.78;;;34.50;35.94
49827;BME280;35715;51.570;6.036;2023-05-22T11:52:38;101297.94;;;34.36;35.00
49827;BME280;35715;51.570;6.036;2023-05-22T11:55:04;101299.25;;;34.56;36.39
49827;BME280;35715;51.570;6.036;2023-05-22T11:57:30;101300.09;;;34.58;33.80
49827;BME280;35715;51.570;6.036;2023-05-22T11:59:57;101301.09;;;34.16;35.22
49827;BME280;35715;51.570;6.036;2023-05-22T12:02:22;101295.63;;;33.36;37.19
49827;BME280;35715;51.570;6.036;2023-05-22T12:04:53;101284.25;;;33.27;36.60
49827;BME280;35715;51.570;6.036;2023-05-22T12:07:18;101285.13;;;33.27;38.07
49827;BME280;35715;51.570;6.036;2023-05-22T12:09:44;101286.38;;;33.06;37.65
49827;BME280;35715;51.570;6.036;2023-05-22T12:12:09;101291.09;;;32.92;37.52
49827;BME280;35715;51.570;6.036;2023-05-22T12:14:37;101293.88;;;33.34;37.70
49827;BME280;35715;51.570;6.036;2023-05-22T12:17:03;101285.69;;;33.43;36.89
49827;BME280;35715;51.570;6.036;2023-05-22T12:19:29;101280.69;;;32.76;38.42
49827;BME280;35715;51.570;6.036;2023-05-22T12:21:54;101286.88;;;32.24;38.34
49827;BME280;35715;51.570;6.036;2023-05-22T12:24:20;101280.59;;;32.26;40.48
49827;BME280;35715;51.570;6.036;2023-05-22T12:26:52;101284.19;;;32.25;37.43
49827;BME280;35715;51.570;6.036;2023-05-22T12:29:20;101288.78;;;32.15;38.87
49827;BME280;35715;51.570;6.036;2023-05-22T12:31:46;101279.00;;;32.16;38.94
49827;BME280;35715;51.570;6.036;2023-05-22T12:34:11;101281.22;;;32.44;37.92
49827;BME280;35715;51.570;6.036;2023-05-22T12:36:39;101276.56;;;32.55;37.98
49827;BME280;35715;51.570;6.036;2023-05-22T12:39:09;101280.06;;;32.60;37.60
49827;BME280;35715;51.570;6.036;2023-05-22T12:41:35;101275.78;;;32.48;36.65
49827;BME280;35715;51.570;6.036;2023-05-22T12:44:01;101284.84;;;32.38;37.61
49827;BME280;35715;51.570;6.036;2023-05-22T12:46:31;101269.72;;;32.38;37.48
49827;BME280;35715;51.570;6.036;2023-05-22T12:48:57;101278.38;;;32.53;38.82
49827;BME280;35715;51.570;6.036;2023-05-22T12:51:26;101270.69;;;32.34;38.42
49827;BME280;35715;51.570;6.036;2023-05-22T12:53:57;101273.19;;;31.83;38.92
49827;BME280;35715;51.570;6.036;2023-05-22T12:56:22;101268.91;;;31.71;40.11
49827;BME280;35715;51.570;6.036;2023-05-22T12:58:48;101265.13;;;31.88;39.79
49827;BME280;35715;51.570;6.036;2023-05-22T13:01:14;101272.94;;;32.01;39.22